sensor_id;sensor_type;location;lat;lon;timestamp;pressure;altitude;pressure_sealevel;temperature;humidity
24306;BME280;12423;48.768;8.850;2023-02-04T00:01:20;98224.66;;;6.48;100.00
24306;BME280;12423;48.768;8.850;2023-02-04T00:03:21;98229.13;;;6.48;100.00
24306;BME280;12423;48.768;8.850;2023-02-04T00:05:22;98219.69;;;6.42;100.00
24306;BME280;12423;48.768;8.850;2023-02-04T00:07:23;98233.38;;;6.52;100.00
24306;BME280;12423;48.768;8.850;2023-02-04T00:09:24;98227.09;;;6.53;100.00
24306;BME280;12423;48.768;8.850;2023-02-04T00:11:25;98230.72;;;6.52;100.00
24306;BME280;12423;48.768;8.850;2023-02-04T00:13:26;98225.41;;;6.52;100.00
24306;BME280;12423;48.768;8.850;2023-02-04T00:15:27;98228.97;;;6.51;100.00
24306;BME280;12423;48.768;8.850;2023-02-04T00:17:28;98218.34;;;6.51;100.00
24306;BME280;12423;48.768;8.850;2023-02-04T00:19:29;98232.56;;;6.50;100.00
24306;BME280;12423;48.768;8.850;2023-02-04T00:21:30;98229.75;;;6.53;100.00
24306;BME280;12423;48.768;8.850;2023-02-04T00:23:31;98219.91;;;6.55;100.00
24306;BME280;12423;48.768;8.850;2023-02-04T00:25:32;98223.53;;;6.54;100.00
24306;BME280;12423;48.768;8.850;2023-02-04T00:27:33;98224.28;;;6.56;100.00
24306;BME280;12423;48.768;8.850;2023-02-04T00:29:34;98212.81;;;6.55;100.00
24306;BME280;12423;48.768;8.850;2023-02-04T00:31:35;98218.06;;;6.57;100.00
24306;BME280;12423;48.768;8.850;2023-02-04T00:33:36;98218.91;;;6.57;100.00
24306;BME280;12423;48.768;8.850;2023-02-04T00:35:37;98214.44;;;6.58;100.00
24306;BME280;12423;48.768;8.850;2023-02-04T00:37:38;98211.94;;;6.55;100.00
24306;BME280;12423;48.768;8.850;2023-02-04T00:39:39;98218.97;;;6.56;100.00
24306;BME280;12423;48.768;8.850;2023-02-04T00:41:40;98212.75;;;6.57;100.00
24306;BME280;12423;48.768;8.850;2023-02-04T00:43:41;98217.19;;;6.56;100.00
24306;BME280;12423;48.768;8.850;2023-02-04T00:45:42;98220.72;;;6.57;100.00
24306;BME280;12423;48.768;8.850;2023-02-04T00:47:45;98219.75;;;6.58;100.00
24306;BME280;12423;48.768;8.850;2023-02-04T00:49:45;98220.53;;;6.60;100.00
24306;BME280;12423;48.768;8.850;2023-02-04T00:51:46;98221.41;;;6.60;100.00
24306;BME280;12423;48.768;8.850;2023-02-04T00:53:48;98231.00;;;6.63;100.00
24306;BME280;12423;48.768;8.850;2023-02-04T00:55:49;98234.97;;;6.54;100.00
24306;BME280;12423;48.768;8.850;2023-02-04T00:57:49;98233.19;;;6.55;100.00
24306;BME280;12423;48.768;8.850;2023-02-04T00:59:51;98233.38;;;6.52;100.00
24306;BME280;12423;48.768;8.850;2023-02-04T01:01:52;98237.72;;;6.53;100.00
24306;BME280;12423;48.768;8.850;2023-02-04T01:03:53;98236.53;;;6.41;100.00
24306;BME280;12423;48.768;8.850;2023-02-04T01:05:54;98245.97;;;6.46;100.00
24306;BME280;12423;48.768;8.850;2023-02-04T01:07:55;98236.47;;;6.42;100.00
24306;BME280;12423;48.768;8.850;2023-02-04T01:09:56;98230.38;;;6.40;100.00
24306;BME280;12423;48.768;8.850;2023-02-04T01:11:56;98230.22;;;6.43;100.00
24306;BME280;12423;48.768;8.850;2023-02-04T01:13:58;98240.84;;;6.43;100.00
24306;BME280;12423;48.768;8.850;2023-02-04T01:15:59;98247.16;;;6.41;100.00
24306;BME280;12423;48.768;8.850;2023-02-04T01:18:00;98250.81;;;6.38;100.00
24306;BME280;12423;48.768;8.850;2023-02-04T01:20:01;98243.66;;;6.40;100.00
24306;BME280;12423;48.768;8.850;2023-02-04T01:22:02;98241.78;;;6.42;100.00
24306;BME280;12423;48.768;8.850;2023-02-04T01:24:03;98254.28;;;6.40;100.00
24306;BME280;12423;48.768;8.850;2023-02-04T01:26:04;98248.00;;;6.41;100.00
24306;BME280;12423;48.768;8.850;2023-02-04T01:28:06;98252.69;;;6.36;100.00
24306;BME280;12423;48.768;8.850;2023-02-04T01:30:08;98257.84;;;6.39;100.00
24306;BME280;12423;48.768;8.850;2023-02-04T01:32:09;98262.47;;;6.36;100.00
24306;BME280;12423;48.768;8.850;2023-02-04T01:34:10;98257.22;;;6.34;100.00
24306;BME280;12423;48.768;8.850;2023-02-04T01:36:11;98254.50;;;6.36;100.00
24306;BME280;12423;48.768;8.850;2023-02-04T01:38:12;98248.50;;;6.32;100.00
24306;BME280;12423;48.768;8.850;2023-02-04T01:40:13;98256.31;;;6.35;100.00
24306;BME280;12423;48.768;8.850;2023-02-04T01:42:14;98246.47;;;6.37;100.00
24306;BME280;12423;48.768;8.850;2023-02-04T01:44:15;98254.44;;;6.37;100.00
24306;BME280;12423;48.768;8.850;2023-02-04T01:46:16;98256.31;;;6.35;100.00
24306;BME280;12423;48.768;8.850;2023-02-04T01:48:19;98257.84;;;6.39;100.00
24306;BME280;12423;48.768;8.850;2023-02-04T01:50:21;98248.09;;;6.40;100.00
24306;BME280;12423;48.768;8.850;2023-02-04T01:52:22;98255.13;;;6.41;100.00
24306;BME280;12423;48.768;8.850;2023-02-04T01:54:25;98251.63;;;6.40;100.00
24306;BME280;12423;48.768;8.850;2023-02-04T01:56:28;98257.84;;;6.39;100.00
24306;BME280;12423;48.768;8.850;2023-02-04T01:58:30;98252.47;;;6.41;100.00
24306;BME280;12423;48.768;8.850;2023-02-04T02:00:32;98250.53;;;6.44;100.00
24306;BME280;12423;48.768;8.850;2023-02-04T02:02:47;98265.59;;;6.44;100.00
24306;BME280;12423;48.768;8.850;2023-02-04T02:04:50;98265.75;;;6.41;100.00
24306;BME280;12423;48.768;8.850;2023-02-04T02:06:52;98277.13;;;6.43;100.00
24306;BME280;12423;48.768;8.850;2023-02-04T02:08:55;98274.56;;;6.41;100.00
24306;BME280;12423;48.768;8.850;2023-02-04T02:10:57;98274.41;;;6.27;100.00
24306;BME280;12423;48.768;8.850;2023-02-04T02:13:00;98262.28;;;6.21;100.00
24306;BME280;12423;48.768;8.850;2023-02-04T02:15:02;98261.22;;;6.06;100.00
24306;BME280;12423;48.768;8.850;2023-02-04T02:17:03;98258.78;;;6.02;100.00
24306;BME280;12423;48.768;8.850;2023-02-04T02:19:06;98266.13;;;5.97;100.00
24306;BME280;12423;48.768;8.850;2023-02-04T02:21:11;98260.22;;;5.90;100.00
24306;BME280;12423;48.768;8.850;2023-02-04T02:25:24;98270.13;;;5.86;100.00
24306;BME280;12423;48.768;8.850;2023-02-04T02:27:24;98273.13;;;5.79;100.00
24306;BME280;12423;48.768;8.850;2023-02-04T02:29:26;98275.84;;;5.77;100.00
24306;BME280;12423;48.768;8.850;2023-02-04T02:31:27;98280.28;;;5.77;100.00
24306;BME280;12423;48.768;8.850;2023-02-04T02:33:28;98275.91;;;5.76;100.00
24306;BME280;12423;48.768;8.850;2023-02-04T02:35:29;98277.91;;;5.70;100.00
24306;BME280;12423;48.768;8.850;2023-02-04T02:37:31;98282.16;;;5.75;100.00
24306;BME280;12423;48.768;8.850;2023-02-04T02:39:32;98269.69;;;5.77;100.00
24306;BME280;12423;48.768;8.850;2023-02-04T02:41:34;98279.56;;;5.73;100.00
24306;BME280;12423;48.768;8.850;2023-02-04T02:43:35;98281.06;;;5.79;100.00
24306;BME280;12423;48.768;8.850;2023-02-04T02:45:38;98283.84;;;5.76;100.00
24306;BME280;12423;48.768;8.850;2023-02-04T02:47:39;98287.47;;;5.75;100.00
24306;BME280;12423;48.768;8.850;2023-02-04T02:49:41;98298.78;;;5.78;100.00
24306;BME280;12423;48.768;8.850;2023-02-04T02:51:42;98313.09;;;5.74;100.00
24306;BME280;12423;48.768;8.850;2023-02-04T02:53:45;98310.53;;;5.72;100.00
24306;BME280;12423;48.768;8.850;2023-02-04T02:55:48;98307.91;;;5.72;100.00
24306;BME280;12423;48.768;8.850;2023-02-04T02:57:54;98302.66;;;5.71;100.00
24306;BME280;12423;48.768;8.850;2023-02-04T02:59:55;98306.22;;;5.70;100.00
24306;BME280;12423;48.768;8.850;2023-02-04T03:02:00;98305.59;;;5.65;100.00
24306;BME280;12423;48.768;8.850;2023-02-04T03:04:04;98298.56;;;5.64;100.00
24306;BME280;12423;48.768;8.850;2023-02-04T03:06:08;98300.28;;;5.65;100.00
24306;BME280;12423;48.768;8.850;2023-02-04T03:08:13;98307.38;;;5.64;100.00
24306;BME280;12423;48.768;8.850;2023-02-04T03:10:16;98310.03;;;5.64;100.00
24306;BME280;12423;48.768;8.850;2023-02-04T03:12:18;98312.44;;;5.69;100.00
24306;BME280;12423;48.768;8.850;2023-02-04T03:14:20;98302.44;;;5.57;100.00
24306;BME280;12423;48.768;8.850;2023-02-04T03:16:22;98297.84;;;5.60;100.00
24306;BME280;12423;48.768;8.850;2023-02-04T03:18:23;98294.28;;;5.61;100.00
24306;BME280;12423;48.768;8.850;2023-02-04T03:20:25;98296.91;;;5.61;100.00
24306;BME280;12423;48.768;8.850;2023-02-04T03:22:27;98304.63;;;5.66;100.00
24306;BME280;12423;48.768;8.850;2023-02-04T03:24:29;98307.97;;;5.71;100.00
24306;BME280;12423;48.768;8.850;2023-02-04T03:26:31;98312.25;;;5.73;100.00
24306;BME280;12423;48.768;8.850;2023-02-04T03:28:32;98304.94;;;5.79;100.00
24306;BME280;12423;48.768;8.850;2023-02-04T03:30:33;98310.03;;;5.83;100.00
24306;BME280;12423;48.768;8.850;2023-02-04T03:32:34;98315.00;;;5.91;100.00
24306;BME280;12423;48.768;8.850;2023-02-04T03:34:35;98315.97;;;5.88;100.00
24306;BME280;12423;48.768;8.850;2023-02-04T03:36:36;98318.34;;;5.95;100.00
24306;BME280;12423;48.768;8.850;2023-02-04T03:38:37;98328.91;;;5.96;100.00
24306;BME280;12423;48.768;8.850;2023-02-04T03:40:38;98328.97;;;5.95;100.00
24306;BME280;12423;48.768;8.850;2023-02-04T03:42:39;98343.81;;;5.99;100.00
24306;BME280;12423;48.768;8.850;2023-02-04T03:44:40;98337.66;;;5.98;100.00
24306;BME280;12423;48.768;8.850;2023-02-04T03:46:41;98348.28;;;5.98;100.00
24306;BME280;12423;48.768;8.850;2023-02-04T03:48:42;98356.41;;;5.94;100.00
24306;BME280;12423;48.768;8.850;2023-02-04T03:50:43;98359.56;;;5.83;100.00
24306;BME280;12423;48.768;8.850;2023-02-04T03:52:44;98365.41;;;5.70;100.00
24306;BME280;12423;48.768;8.850;2023-02-04T03:54:45;98383.47;;;5.62;100.00
24306;BME280;12423;48.768;8.850;2023-02-04T03:56:46;98364.50;;;5.51;100.00
24306;BME280;12423;48.768;8.850;2023-02-04T03:58:47;98386.66;;;5.50;100.00
24306;BME280;12423;48.768;8.850;2023-02-04T04:00:49;98384.16;;;5.47;100.00
24306;BME280;12423;48.768;8.850;2023-02-04T04:02:50;98379.91;;;5.43;100.00
24306;BME280;12423;48.768;8.850;2023-02-04T04:04:51;98375.75;;;5.37;100.00
24306;BME280;12423;48.768;8.850;2023-02-04T04:06:53;98381.28;;;5.31;100.00
24306;BME280;12423;48.768;8.850;2023-02-04T04:08:54;98393.56;;;5.33;100.00
24306;BME280;12423;48.768;8.850;2023-02-04T04:10:55;98395.28;;;5.34;100.00
24306;BME280;12423;48.768;8.850;2023-02-04T04:12:56;98400.72;;;5.31;100.00
24306;BME280;12423;48.768;8.850;2023-02-04T04:14:56;98401.72;;;5.29;100.00
24306;BME280;12423;48.768;8.850;2023-02-04T04:16:57;98414.09;;;5.28;100.00
24306;BME280;12423;48.768;8.850;2023-02-04T04:18:58;98410.44;;;5.31;100.00
24306;BME280;12423;48.768;8.850;2023-02-04T04:20:59;98411.66;;;5.24;100.00
24306;BME280;12423;48.768;8.850;2023-02-04T04:23:00;98402.84;;;5.23;100.00
24306;BME280;12423;48.768;8.850;2023-02-04T04:25:01;98410.66;;;5.26;100.00
24306;BME280;12423;48.768;8.850;2023-02-04T04:27:02;98415.16;;;5.24;100.00
24306;BME280;12423;48.768;8.850;2023-02-04T04:29:03;98408.34;;;5.19;100.00
24306;BME280;12423;48.768;8.850;2023-02-04T04:31:04;98402.31;;;5.15;100.00
24306;BME280;12423;48.768;8.850;2023-02-04T04:33:05;98409.97;;;5.21;100.00
24306;BME280;12423;48.768;8.850;2023-02-04T04:35:06;98408.09;;;5.25;100.00
24306;BME280;12423;48.768;8.850;2023-02-04T04:37:07;98412.56;;;5.23;100.00
24306;BME280;12423;48.768;8.850;2023-02-04T04:39:08;98401.38;;;5.16;100.00
24306;BME280;12423;48.768;8.850;2023-02-04T04:41:09;98405.88;;;5.14;100.00
24306;BME280;12423;48.768;8.850;2023-02-04T04:43:10;98406.78;;;5.13;100.00
24306;BME280;12423;48.768;8.850;2023-02-04T04:45:11;98412.03;;;5.14;100.00
24306;BME280;12423;48.768;8.850;2023-02-04T04:47:12;98411.19;;;5.14;100.00
24306;BME280;12423;48.768;8.850;2023-02-04T04:49:13;98415.69;;;5.12;100.00
24306;BME280;12423;48.768;8.850;2023-02-04T04:51:16;98409.25;;;5.17;100.00
24306;BME280;12423;48.768;8.850;2023-02-04T04:53:16;98411.03;;;5.17;100.00
24306;BME280;12423;48.768;8.850;2023-02-04T04:55:17;98411.84;;;5.19;100.00
24306;BME280;12423;48.768;8.850;2023-02-04T04:57:18;98408.59;;;5.12;100.00
24306;BME280;12423;48.768;8.850;2023-02-04T04:59:19;98406.78;;;5.13;100.00
24306;BME280;12423;48.768;8.850;2023-02-04T05:01:20;98412.84;;;5.16;100.00
24306;BME280;12423;48.768;8.850;2023-02-04T05:03:22;98409.38;;;5.14;100.00
24306;BME280;12423;48.768;8.850;2023-02-04T05:05:23;98404.97;;;5.15;100.00
24306;BME280;12423;48.768;8.850;2023-02-04T05:07:24;98416.41;;;5.15;100.00
24306;BME280;12423;48.768;8.850;2023-02-04T05:09:25;98420.97;;;5.12;100.00
24306;BME280;12423;48.768;8.850;2023-02-04T05:11:26;98408.78;;;5.08;100.00
24306;BME280;12423;48.768;8.850;2023-02-04T05:13:27;98418.47;;;5.09;100.00
24306;BME280;12423;48.768;8.850;2023-02-04T05:15:28;98429.59;;;5.17;100.00
24306;BME280;12423;48.768;8.850;2023-02-04T05:17:29;98427.00;;;5.15;100.00
24306;BME280;12423;48.768;8.850;2023-02-04T05:19:30;98418.22;;;5.15;100.00
24306;BME280;12423;48.768;8.850;2023-02-04T05:21:30;98418.22;;;5.15;100.00
24306;BME280;12423;48.768;8.850;2023-02-04T05:23:32;98416.53;;;5.12;100.00
24306;BME280;12423;48.768;8.850;2023-02-04T05:25:33;98413.09;;;5.10;100.00
24306;BME280;12423;48.768;8.850;2023-02-04T05:27:34;98417.53;;;5.10;100.00
24306;BME280;12423;48.768;8.850;2023-02-04T05:29:35;98418.47;;;5.09;100.00
24306;BME280;12423;48.768;8.850;2023-02-04T05:31:36;98406.06;;;5.09;100.00
24306;BME280;12423;48.768;8.850;2023-02-04T05:33:37;98412.50;;;5.04;100.00
24306;BME280;12423;48.768;8.850;2023-02-04T05:35:38;98420.44;;;5.04;100.00
24306;BME280;12423;48.768;8.850;2023-02-04T05:37:39;98421.41;;;5.01;100.00
24306;BME280;12423;48.768;8.850;2023-02-04T05:39:40;98438.97;;;5.04;100.00
24306;BME280;12423;48.768;8.850;2023-02-04T05:41:40;98438.97;;;5.04;100.00
24306;BME280;12423;48.768;8.850;2023-02-04T05:43:41;98438.97;;;5.04;100.00
24306;BME280;12423;48.768;8.850;2023-02-04T05:45:42;98445.06;;;5.06;100.00
24306;BME280;12423;48.768;8.850;2023-02-04T05:47:43;98439.84;;;5.04;100.00
24306;BME280;12423;48.768;8.850;2023-02-04T05:49:45;98435.19;;;5.09;100.00
24306;BME280;12423;48.768;8.850;2023-02-04T05:51:46;98438.09;;;5.03;100.00
24306;BME280;12423;48.768;8.850;2023-02-04T05:53:47;98432.63;;;5.08;100.00
24306;BME280;12423;48.768;8.850;2023-02-04T05:55:48;98424.78;;;5.05;100.00
24306;BME280;12423;48.768;8.850;2023-02-04T05:57:48;98430.03;;;5.06;100.00
24306;BME280;12423;48.768;8.850;2023-02-04T05:59:49;98438.72;;;5.10;100.00
24306;BME280;12423;48.768;8.850;2023-02-04T06:01:50;98441.69;;;5.02;100.00
24306;BME280;12423;48.768;8.850;2023-02-04T06:03:51;98450.66;;;4.98;100.00
24306;BME280;12423;48.768;8.850;2023-02-04T06:05:52;98451.56;;;4.98;100.00
24306;BME280;12423;48.768;8.850;2023-02-04T06:07:53;98451.50;;;5.00;100.00
24306;BME280;12423;48.768;8.850;2023-02-04T06:09:54;98453.19;;;5.01;100.00
24306;BME280;12423;48.768;8.850;2023-02-04T06:11:55;98454.81;;;5.05;100.00
24306;BME280;12423;48.768;8.850;2023-02-04T06:13:57;98456.44;;;5.08;100.00
24306;BME280;12423;48.768;8.850;2023-02-04T06:15:58;98463.91;;;4.98;100.00
24306;BME280;12423;48.768;8.850;2023-02-04T06:17:59;98473.66;;;4.97;100.00
24306;BME280;12423;48.768;8.850;2023-02-04T06:20:00;98472.75;;;4.98;100.00
24306;BME280;12423;48.768;8.850;2023-02-04T06:22:01;98469.41;;;4.93;100.00
24306;BME280;12423;48.768;8.850;2023-02-04T06:24:02;98472.88;;;4.95;100.00
24306;BME280;12423;48.768;8.850;2023-02-04T06:26:03;98481.59;;;4.97;100.00
24306;BME280;12423;48.768;8.850;2023-02-04T06:28:04;98480.63;;;5.00;100.00
24306;BME280;12423;48.768;8.850;2023-02-04T06:30:05;98480.69;;;4.98;100.00
24306;BME280;12423;48.768;8.850;2023-02-04T06:32:06;98480.69;;;4.98;100.00
24306;BME280;12423;48.768;8.850;2023-02-04T06:34:07;98488.63;;;4.98;100.00
24306;BME280;12423;48.768;8.850;2023-02-04T06:36:08;98496.53;;;5.00;100.00
24306;BME280;12423;48.768;8.850;2023-02-04T06:38:09;98513.09;;;5.05;100.00
24306;BME280;12423;48.768;8.850;2023-02-04T06:40:11;98506.97;;;5.03;100.00
24306;BME280;12423;48.768;8.850;2023-02-04T06:42:12;98507.72;;;5.07;100.00
24306;BME280;12423;48.768;8.850;2023-02-04T06:44:12;98512.19;;;5.05;100.00
24306;BME280;12423;48.768;8.850;2023-02-04T06:46:13;98513.16;;;5.04;100.00
24306;BME280;12423;48.768;8.850;2023-02-04T06:48:14;98518.44;;;5.04;100.00
24306;BME280;12423;48.768;8.850;2023-02-04T06:50:15;98517.72;;;5.00;100.00
24306;BME280;12423;48.768;8.850;2023-02-04T06:52:19;98517.81;;;4.97;100.00
24306;BME280;12423;48.768;8.850;2023-02-04T06:54:20;98516.66;;;5.04;100.00
24306;BME280;12423;48.768;8.850;2023-02-04T06:56:21;98527.53;;;4.96;100.00
24306;BME280;12423;48.768;8.850;2023-02-04T06:58:22;98530.41;;;4.92;100.00
24306;BME280;12423;48.768;8.850;2023-02-04T07:00:23;98528.47;;;4.95;100.00
24306;BME280;12423;48.768;8.850;2023-02-04T07:02:24;98525.72;;;4.98;100.00
24306;BME280;12423;48.768;8.850;2023-02-04T07:04:25;98534.44;;;5.01;100.00
24306;BME280;12423;48.768;8.850;2023-02-04T07:06:26;98537.03;;;5.02;100.00
24306;BME280;12423;48.768;8.850;2023-02-04T07:08:26;98530.00;;;5.01;100.00
24306;BME280;12423;48.768;8.850;2023-02-04T07:10:28;98532.72;;;4.99;100.00
24306;BME280;12423;48.768;8.850;2023-02-04T07:12:29;98522.38;;;4.93;100.00
24306;BME280;12423;48.768;8.850;2023-02-04T07:14:29;98530.50;;;4.89;100.00
24306;BME280;12423;48.768;8.850;2023-02-04T07:16:30;98529.63;;;4.88;100.00
24306;BME280;12423;48.768;8.850;2023-02-04T07:18:32;98539.75;;;5.01;100.00
24306;BME280;12423;48.768;8.850;2023-02-04T07:20:32;98549.44;;;5.02;100.00
24306;BME280;12423;48.768;8.850;2023-02-04T07:22:33;98544.13;;;5.02;100.00
24306;BME280;12423;48.768;8.850;2023-02-04T07:24:34;98552.44;;;4.92;100.00
24306;BME280;12423;48.768;8.850;2023-02-04T07:26:35;98538.91;;;5.00;100.00
24306;BME280;12423;48.768;8.850;2023-02-04T07:28:36;98545.34;;;4.93;100.00
24306;BME280;12423;48.768;8.850;2023-02-04T07:30:37;98553.78;;;5.03;100.00
24306;BME280;12423;48.768;8.850;2023-02-04T07:32:38;98554.91;;;4.97;100.00
24306;BME280;12423;48.768;8.850;2023-02-04T07:34:39;98564.38;;;5.03;100.00
24306;BME280;12423;48.768;8.850;2023-02-04T07:36:40;98571.66;;;4.97;100.00
24306;BME280;12423;48.768;8.850;2023-02-04T07:38:41;98559.38;;;4.95;100.00
24306;BME280;12423;48.768;8.850;2023-02-04T07:40:42;98570.91;;;4.94;100.00
24306;BME280;12423;48.768;8.850;2023-02-04T07:42:43;98566.25;;;5.01;100.00
24306;BME280;12423;48.768;8.850;2023-02-04T07:44:50;98568.09;;;4.98;100.00
24306;BME280;12423;48.768;8.850;2023-02-04T07:46:51;98573.38;;;4.98;100.00
24306;BME280;12423;48.768;8.850;2023-02-04T07:48:52;98578.63;;;5.00;100.00
24306;BME280;12423;48.768;8.850;2023-02-04T07:50:53;98584.59;;;5.05;100.00
24306;BME280;12423;48.768;8.850;2023-02-04T07:52:54;98585.28;;;5.10;100.00
24306;BME280;12423;48.768;8.850;2023-02-04T07:54:55;98589.47;;;5.16;100.00
24306;BME280;12423;48.768;8.850;2023-02-04T07:56:56;98580.44;;;5.22;100.00
24306;BME280;12423;48.768;8.850;2023-02-04T07:58:57;98586.59;;;5.22;100.00
24306;BME280;12423;48.768;8.850;2023-02-04T08:00:58;98587.38;;;5.24;100.00
24306;BME280;12423;48.768;8.850;2023-02-04T08:02:59;98584.06;;;5.19;100.00
24306;BME280;12423;48.768;8.850;2023-02-04T08:05:00;98590.53;;;5.12;100.00
24306;BME280;12423;48.768;8.850;2023-02-04T08:07:01;98586.81;;;5.16;100.00
24306;BME280;12423;48.768;8.850;2023-02-04T08:09:02;98591.19;;;5.17;100.00
24306;BME280;12423;48.768;8.850;2023-02-04T08:11:03;98585.28;;;5.10;100.00
24306;BME280;12423;48.768;8.850;2023-02-04T08:13:04;98594.78;;;5.38;100.00
24306;BME280;12423;48.768;8.850;2023-02-04T08:15:05;98589.88;;;5.71;100.00
24306;BME280;12423;48.768;8.850;2023-02-04T08:17:09;98595.03;;;5.97;100.00
24306;BME280;12423;48.768;8.850;2023-02-04T08:19:10;98602.81;;;6.01;100.00
24306;BME280;12423;48.768;8.850;2023-02-04T08:21:11;98601.31;;;5.94;100.00
24306;BME280;12423;48.768;8.850;2023-02-04T08:23:12;98606.75;;;5.91;100.00
24306;BME280;12423;48.768;8.850;2023-02-04T08:25:13;98608.63;;;5.89;100.00
24306;BME280;12423;48.768;8.850;2023-02-04T08:27:13;98617.81;;;6.02;100.00
24306;BME280;12423;48.768;8.850;2023-02-04T08:29:14;98623.50;;;6.14;100.00
24306;BME280;12423;48.768;8.850;2023-02-04T08:31:15;98626.97;;;6.16;100.00
24306;BME280;12423;48.768;8.850;2023-02-04T08:33:16;98628.97;;;6.11;100.00
24306;BME280;12423;48.768;8.850;2023-02-04T08:35:17;98618.88;;;6.19;100.00
24306;BME280;12423;48.768;8.850;2023-02-04T08:37:18;98627.16;;;6.11;100.00
24306;BME280;12423;48.768;8.850;2023-02-04T08:39:19;98620.72;;;5.96;100.00
24306;BME280;12423;48.768;8.850;2023-02-04T08:41:20;98624.91;;;5.80;100.00
24306;BME280;12423;48.768;8.850;2023-02-04T08:43:21;98623.16;;;5.79;100.00
24306;BME280;12423;48.768;8.850;2023-02-04T08:45:22;98615.13;;;5.60;100.00
24306;BME280;12423;48.768;8.850;2023-02-04T08:47:23;98624.78;;;5.61;100.00
24306;BME280;12423;48.768;8.850;2023-02-04T08:49:24;98626.22;;;5.69;100.00
24306;BME280;12423;48.768;8.850;2023-02-04T08:51:25;98633.41;;;5.66;100.00
24306;BME280;12423;48.768;8.850;2023-02-04T08:53:26;98633.69;;;5.60;100.00
24306;BME280;12423;48.768;8.850;2023-02-04T08:55:27;98638.81;;;5.64;100.00
24306;BME280;12423;48.768;8.850;2023-02-04T08:57:28;98644.91;;;5.66;100.00
24306;BME280;12423;48.768;8.850;2023-02-04T08:59:29;98654.38;;;5.72;100.00
24306;BME280;12423;48.768;8.850;2023-02-04T09:01:30;98655.13;;;5.76;100.00
24306;BME280;12423;48.768;8.850;2023-02-04T09:03:30;98652.28;;;5.80;100.00
24306;BME280;12423;48.768;8.850;2023-02-04T09:05:32;98650.75;;;5.75;100.00
24306;BME280;12423;48.768;8.850;2023-02-04T09:07:33;98654.56;;;5.67;100.00
24306;BME280;12423;48.768;8.850;2023-02-04T09:09:34;98643.91;;;5.69;100.00
24306;BME280;12423;48.768;8.850;2023-02-04T09:11:35;98651.66;;;5.73;100.00
24306;BME280;12423;48.768;8.850;2023-02-04T09:13:36;98660.28;;;5.79;100.00
24306;BME280;12423;48.768;8.850;2023-02-04T09:15:37;98662.59;;;5.88;100.00
24306;BME280;12423;48.768;8.850;2023-02-04T09:17:38;98669.09;;;6.44;100.00
24306;BME280;12423;48.768;8.850;2023-02-04T09:19:39;98675.59;;;6.37;100.00
24306;BME280;12423;48.768;8.850;2023-02-04T09:21:40;98668.91;;;6.28;100.00
24306;BME280;12423;48.768;8.850;2023-02-04T09:23:40;98667.44;;;6.21;100.00
24306;BME280;12423;48.768;8.850;2023-02-04T09:25:43;98666.19;;;6.30;100.00
24306;BME280;12423;48.768;8.850;2023-02-04T09:27:44;98659.34;;;6.24;100.00
24306;BME280;12423;48.768;8.850;2023-02-04T09:29:45;98667.69;;;6.15;100.00
24306;BME280;12423;48.768;8.850;2023-02-04T09:31:46;98674.25;;;6.26;100.00
24306;BME280;12423;48.768;8.850;2023-02-04T09:33:48;98670.75;;;6.26;100.00
24306;BME280;12423;48.768;8.850;2023-02-04T09:35:49;98683.25;;;6.24;100.00
24306;BME280;12423;48.768;8.850;2023-02-04T09:37:50;98675.94;;;6.29;100.00
24306;BME280;12423;48.768;8.850;2023-02-04T09:39:51;98685.09;;;6.42;100.00
24306;BME280;12423;48.768;8.850;2023-02-04T09:41:52;98694.09;;;6.38;100.00
24306;BME280;12423;48.768;8.850;2023-02-04T09:43:53;98698.03;;;6.30;100.00
24306;BME280;12423;48.768;8.850;2023-02-04T09:45:55;98691.75;;;6.32;100.00
24306;BME280;12423;48.768;8.850;2023-02-04T09:47:57;98700.63;;;6.31;100.00
24306;BME280;12423;48.768;8.850;2023-02-04T09:49:59;98709.91;;;6.21;100.00
24306;BME280;12423;48.768;8.850;2023-02-04T09:52:00;98701.69;;;6.27;100.00
24306;BME280;12423;48.768;8.850;2023-02-04T09:54:08;98701.94;;;6.21;100.00
24306;BME280;12423;48.768;8.850;2023-02-04T09:56:11;98698.94;;;6.28;100.00
24306;BME280;12423;48.768;8.850;2023-02-04T09:58:17;98713.03;;;6.31;100.00
24306;BME280;12423;48.768;8.850;2023-02-04T10:00:23;98709.66;;;6.27;100.00
24306;BME280;12423;48.768;8.850;2023-02-04T10:02:25;98708.59;;;6.31;100.00
24306;BME280;12423;48.768;8.850;2023-02-04T10:04:26;98704.72;;;6.38;100.00
24306;BME280;12423;48.768;8.850;2023-02-04T10:06:28;98699.34;;;6.40;100.00
24306;BME280;12423;48.768;8.850;2023-02-04T10:08:30;98703.88;;;6.38;100.00
24306;BME280;12423;48.768;8.850;2023-02-04T10:10:32;98701.69;;;6.27;100.00
24306;BME280;12423;48.768;8.850;2023-02-04T10:12:33;98698.88;;;6.30;100.00
24306;BME280;12423;48.768;8.850;2023-02-04T10:14:34;98696.75;;;6.38;100.00
24306;BME280;12423;48.768;8.850;2023-02-04T10:16:35;98708.88;;;6.45;100.00
24306;BME280;12423;48.768;8.850;2023-02-04T10:18:42;98704.41;;;6.46;100.00
24306;BME280;12423;48.768;8.850;2023-02-04T10:20:43;98702.53;;;6.48;100.00
24306;BME280;12423;48.768;8.850;2023-02-04T10:22:45;98701.31;;;6.57;100.00
24306;BME280;12423;48.768;8.850;2023-02-04T10:24:46;98705.59;;;6.59;100.00
24306;BME280;12423;48.768;8.850;2023-02-04T10:26:47;98702.50;;;6.70;100.00
24306;BME280;12423;48.768;8.850;2023-02-04T10:28:48;98695.06;;;6.78;100.00
24306;BME280;12423;48.768;8.850;2023-02-04T10:30:49;98688.31;;;6.90;100.00
24306;BME280;12423;48.768;8.850;2023-02-04T10:32:51;98688.63;;;7.03;100.00
24306;BME280;12423;48.768;8.850;2023-02-04T10:34:56;98690.53;;;6.99;100.00
24306;BME280;12423;48.768;8.850;2023-02-04T10:36:58;98689.41;;;7.05;100.00
24306;BME280;12423;48.768;8.850;2023-02-04T10:39:03;98687.47;;;7.09;100.00
24306;BME280;12423;48.768;8.850;2023-02-04T10:41:04;98681.19;;;7.11;100.00
24306;BME280;12423;48.768;8.850;2023-02-04T10:43:26;98677.88;;;7.06;100.00
24306;BME280;12423;48.768;8.850;2023-02-04T10:45:29;98686.41;;;7.13;100.00